sensor_id;sensor_type;location;lat;lon;timestamp;pressure;altitude;pressure_sealevel;temperature;humidity
4590;BME280;2307;48.448;9.216;2023-04-15T00:01:20;94406.91;;;7.62;97.58
4590;BME280;2307;48.448;9.216;2023-04-15T00:03:49;94412.47;;;7.48;98.61
4590;BME280;2307;48.448;9.216;2023-04-15T00:06:16;94410.09;;;7.47;97.54
4590;BME280;2307;48.448;9.216;2023-04-15T00:08:43;94410.25;;;7.40;97.06
4590;BME280;2307;48.448;9.216;2023-04-15T00:11:09;94407.09;;;7.38;98.15
4590;BME280;2307;48.448;9.216;2023-04-15T00:13:37;94412.81;;;7.35;99.36
4590;BME280;2307;48.448;9.216;2023-04-15T00:16:04;94405.97;;;7.34;100.00
4590;BME280;2307;48.448;9.216;2023-04-15T00:18:31;94402.31;;;7.35;100.00
4590;BME280;2307;48.448;9.216;2023-04-15T00:20:58;94408.34;;;7.36;99.94
4590;BME280;2307;48.448;9.216;2023-04-15T00:23:24;94406.03;;;7.39;100.00
4590;BME280;2307;48.448;9.216;2023-04-15T00:25:51;94403.88;;;7.36;100.00
4590;BME280;2307;48.448;9.216;2023-04-15T00:28:17;94407.78;;;7.34;100.00
4590;BME280;2307;48.448;9.216;2023-04-15T00:30:45;94400.72;;;7.34;100.00
4590;BME280;2307;48.448;9.216;2023-04-15T00:33:12;94399.09;;;7.33;100.00
4590;BME280;2307;48.448;9.216;2023-04-15T00:35:38;94409.13;;;7.36;100.00
4590;BME280;2307;48.448;9.216;2023-04-15T00:38:05;94405.78;;;7.24;100.00
4590;BME280;2307;48.448;9.216;2023-04-15T00:40:32;94406.97;;;7.17;100.00
4590;BME280;2307;48.448;9.216;2023-04-15T00:42:59;94404.53;;;7.10;100.00
4590;BME280;2307;48.448;9.216;2023-04-15T00:45:25;94409.28;;;7.13;100.00
4590;BME280;2307;48.448;9.216;2023-04-15T00:47:54;94410.06;;;6.97;100.00
4590;BME280;2307;48.448;9.216;2023-04-15T00:50:20;94405.84;;;6.96;100.00
4590;BME280;2307;48.448;9.216;2023-04-15T00:52:47;94402.22;;;6.85;100.00
4590;BME280;2307;48.448;9.216;2023-04-15T00:55:13;94400.34;;;6.81;100.00
4590;BME280;2307;48.448;9.216;2023-04-15T00:57:40;94401.06;;;6.93;100.00
4590;BME280;2307;48.448;9.216;2023-04-15T01:00:07;94405.28;;;6.94;100.00
4590;BME280;2307;48.448;9.216;2023-04-15T01:02:35;94407.44;;;6.97;100.00
4590;BME280;2307;48.448;9.216;2023-04-15T01:05:03;94408.13;;;6.92;100.00
4590;BME280;2307;48.448;9.216;2023-04-15T01:07:30;94406.25;;;6.88;100.00
4590;BME280;2307;48.448;9.216;2023-04-15T01:09:56;94407.81;;;6.89;100.00
4590;BME280;2307;48.448;9.216;2023-04-15T01:12:23;94408.63;;;6.89;100.00
4590;BME280;2307;48.448;9.216;2023-04-15T01:14:51;94411.56;;;6.93;100.00
4590;BME280;2307;48.448;9.216;2023-04-15T01:17:18;94408.47;;;6.96;100.00
4590;BME280;2307;48.448;9.216;2023-04-15T01:19:44;94410.53;;;6.94;100.00
4590;BME280;2307;48.448;9.216;2023-04-15T01:22:12;94406.31;;;6.93;100.00
4590;BME280;2307;48.448;9.216;2023-04-15T01:24:39;94406.69;;;6.85;100.00
4590;BME280;2307;48.448;9.216;2023-04-15T01:27:06;94407.06;;;6.77;100.00
4590;BME280;2307;48.448;9.216;2023-04-15T01:29:35;94407.16;;;6.82;100.00
4590;BME280;2307;48.448;9.216;2023-04-15T01:32:02;94408.09;;;6.76;100.00
4590;BME280;2307;48.448;9.216;2023-04-15T01:34:28;94407.00;;;6.72;100.00
4590;BME280;2307;48.448;9.216;2023-04-15T01:36:55;94409.47;;;6.78;100.00
4590;BME280;2307;48.448;9.216;2023-04-15T01:39:21;94412.09;;;6.78;100.00
4590;BME280;2307;48.448;9.216;2023-04-15T01:41:48;94407.22;;;6.70;100.00
4590;BME280;2307;48.448;9.216;2023-04-15T01:44:15;94411.56;;;6.65;100.00
4590;BME280;2307;48.448;9.216;2023-04-15T01:46:42;94414.09;;;6.60;100.00
4590;BME280;2307;48.448;9.216;2023-04-15T01:49:08;94408.69;;;6.50;100.00
4590;BME280;2307;48.448;9.216;2023-04-15T01:51:34;94412.19;;;6.55;100.00
4590;BME280;2307;48.448;9.216;2023-04-15T01:54:01;94404.06;;;6.57;100.00
4590;BME280;2307;48.448;9.216;2023-04-15T01:56:28;94404.38;;;6.44;100.00
4590;BME280;2307;48.448;9.216;2023-04-15T01:58:54;94403.44;;;6.50;100.00
4590;BME280;2307;48.448;9.216;2023-04-15T02:01:22;94404.66;;;6.47;100.00
4590;BME280;2307;48.448;9.216;2023-04-15T02:03:48;94401.81;;;6.49;100.00
4590;BME280;2307;48.448;9.216;2023-04-15T02:06:15;94402.97;;;6.53;100.00
4590;BME280;2307;48.448;9.216;2023-04-15T02:08:42;94403.31;;;6.45;100.00
4590;BME280;2307;48.448;9.216;2023-04-15T02:11:08;94393.88;;;6.44;100.00
4590;BME280;2307;48.448;9.216;2023-04-15T02:13:35;94392.16;;;6.37;100.00
4590;BME280;2307;48.448;9.216;2023-04-15T02:16:01;94393.75;;;6.38;100.00
4590;BME280;2307;48.448;9.216;2023-04-15T02:18:29;94395.81;;;6.36;100.00
4590;BME280;2307;48.448;9.216;2023-04-15T02:20:56;94394.13;;;6.30;100.00
4590;BME280;2307;48.448;9.216;2023-04-15T02:23:22;94386.59;;;6.34;100.00
4590;BME280;2307;48.448;9.216;2023-04-15T02:25:49;94387.16;;;6.36;100.00
4590;BME280;2307;48.448;9.216;2023-04-15T02:28:15;94383.66;;;6.30;100.00
4590;BME280;2307;48.448;9.216;2023-04-15T02:30:42;94393.22;;;6.36;100.00
4590;BME280;2307;48.448;9.216;2023-04-15T02:33:08;94385.22;;;6.31;100.00
4590;BME280;2307;48.448;9.216;2023-04-15T02:35:36;94384.13;;;6.27;100.00
4590;BME280;2307;48.448;9.216;2023-04-15T02:38:06;94388.22;;;6.23;100.00
4590;BME280;2307;48.448;9.216;2023-04-15T02:40:32;94380.28;;;6.18;100.00
4590;BME280;2307;48.448;9.216;2023-04-15T02:42:58;94384.59;;;6.24;100.00
4590;BME280;2307;48.448;9.216;2023-04-15T02:45:25;94373.97;;;6.19;100.00
4590;BME280;2307;48.448;9.216;2023-04-15T02:47:52;94377.75;;;6.23;100.00
4590;BME280;2307;48.448;9.216;2023-04-15T02:50:18;94390.59;;;6.25;100.00
4590;BME280;2307;48.448;9.216;2023-04-15T02:52:46;94384.47;;;6.19;100.00
4590;BME280;2307;48.448;9.216;2023-04-15T02:55:12;94390.63;;;6.13;100.00
4590;BME280;2307;48.448;9.216;2023-04-15T02:57:39;94383.25;;;6.10;100.00
4590;BME280;2307;48.448;9.216;2023-04-15T03:00:06;94391.44;;;6.14;100.00
4590;BME280;2307;48.448;9.216;2023-04-15T03:02:33;94394.19;;;6.07;100.00
4590;BME280;2307;48.448;9.216;2023-04-15T03:05:00;94390.19;;;5.81;100.00
4590;BME280;2307;48.448;9.216;2023-04-15T03:07:27;94394.88;;;5.68;100.00
4590;BME280;2307;48.448;9.216;2023-04-15T03:09:54;94398.06;;;5.47;100.00
4590;BME280;2307;48.448;9.216;2023-04-15T03:12:21;94398.75;;;5.54;100.00
4590;BME280;2307;48.448;9.216;2023-04-15T03:14:47;94393.75;;;5.41;100.00
4590;BME280;2307;48.448;9.216;2023-04-15T03:17:13;94399.53;;;5.43;100.00
4590;BME280;2307;48.448;9.216;2023-04-15T03:19:40;94391.38;;;5.51;100.00
4590;BME280;2307;48.448;9.216;2023-04-15T03:22:06;94393.97;;;5.51;100.00
4590;BME280;2307;48.448;9.216;2023-04-15T03:24:33;94397.16;;;5.53;100.00
4590;BME280;2307;48.448;9.216;2023-04-15T03:27:01;94393.41;;;5.49;100.00
4590;BME280;2307;48.448;9.216;2023-04-15T03:29:27;94394.78;;;5.51;100.00
4590;BME280;2307;48.448;9.216;2023-04-15T03:31:53;94388.63;;;5.57;100.00
4590;BME280;2307;48.448;9.216;2023-04-15T03:34:20;94387.28;;;5.55;100.00
4590;BME280;2307;48.448;9.216;2023-04-15T03:36:46;94391.59;;;5.49;100.00
4590;BME280;2307;48.448;9.216;2023-04-15T03:39:13;94387.38;;;5.36;100.00
4590;BME280;2307;48.448;9.216;2023-04-15T03:41:40;94382.81;;;5.44;100.00
4590;BME280;2307;48.448;9.216;2023-04-15T03:44:08;94384.63;;;5.43;100.00
4590;BME280;2307;48.448;9.216;2023-04-15T03:46:34;94381.56;;;5.46;100.00
4590;BME280;2307;48.448;9.216;2023-04-15T03:49:01;94384.88;;;5.42;100.00
4590;BME280;2307;48.448;9.216;2023-04-15T03:51:27;94383.19;;;5.35;100.00
4590;BME280;2307;48.448;9.216;2023-04-15T03:53:53;94387.94;;;5.39;100.00
4590;BME280;2307;48.448;9.216;2023-04-15T03:56:20;94379.66;;;5.42;100.00
4590;BME280;2307;48.448;9.216;2023-04-15T03:58:46;94387.38;;;5.25;100.00
4590;BME280;2307;48.448;9.216;2023-04-15T04:01:14;94388.72;;;5.27;100.00
4590;BME280;2307;48.448;9.216;2023-04-15T04:03:40;94387.03;;;5.21;100.00
4590;BME280;2307;48.448;9.216;2023-04-15T04:06:07;94391.94;;;5.29;100.00
4590;BME280;2307;48.448;9.216;2023-04-15T04:08:34;94393.84;;;5.22;100.00
4590;BME280;2307;48.448;9.216;2023-04-15T04:11:00;94389.44;;;5.23;100.00
4590;BME280;2307;48.448;9.216;2023-04-15T04:13:27;94388.47;;;5.17;100.00
4590;BME280;2307;48.448;9.216;2023-04-15T04:15:53;94388.03;;;5.20;100.00
4590;BME280;2307;48.448;9.216;2023-04-15T04:18:21;94395.31;;;5.18;100.00
4590;BME280;2307;48.448;9.216;2023-04-15T04:20:48;94394.72;;;5.05;100.00
4590;BME280;2307;48.448;9.216;2023-04-15T04:23:14;94395.28;;;4.95;100.00
4590;BME280;2307;48.448;9.216;2023-04-15T04:25:40;94391.84;;;4.83;100.00
4590;BME280;2307;48.448;9.216;2023-04-15T04:28:07;94389.31;;;4.76;100.00
4590;BME280;2307;48.448;9.216;2023-04-15T04:30:34;94386.59;;;4.83;100.00
4590;BME280;2307;48.448;9.216;2023-04-15T04:33:01;94387.56;;;5.00;100.00
4590;BME280;2307;48.448;9.216;2023-04-15T04:35:28;94395.53;;;5.05;100.00
4590;BME280;2307;48.448;9.216;2023-04-15T04:37:55;94395.53;;;5.05;100.00
4590;BME280;2307;48.448;9.216;2023-04-15T04:40:21;94394.81;;;4.98;100.00
4590;BME280;2307;48.448;9.216;2023-04-15T04:42:48;94394.50;;;4.95;100.00
4590;BME280;2307;48.448;9.216;2023-04-15T04:45:14;94391.66;;;4.96;100.00
4590;BME280;2307;48.448;9.216;2023-04-15T04:47:41;94395.47;;;4.82;100.00
4590;BME280;2307;48.448;9.216;2023-04-15T04:50:07;94393.88;;;4.81;100.00
4590;BME280;2307;48.448;9.216;2023-04-15T04:52:35;94403.19;;;4.77;100.00
4590;BME280;2307;48.448;9.216;2023-04-15T04:55:02;94396.97;;;4.60;100.00
4590;BME280;2307;48.448;9.216;2023-04-15T04:57:28;94405.69;;;4.72;100.00
4590;BME280;2307;48.448;9.216;2023-04-15T04:59:55;94406.50;;;4.72;100.00
4590;BME280;2307;48.448;9.216;2023-04-15T05:02:21;94407.16;;;4.68;100.00
4590;BME280;2307;48.448;9.216;2023-04-15T05:04:48;94411.09;;;4.59;100.00
4590;BME280;2307;48.448;9.216;2023-04-15T05:07:18;94424.44;;;4.69;100.00
4590;BME280;2307;48.448;9.216;2023-04-15T05:09:46;94419.34;;;4.74;100.00
4590;BME280;2307;48.448;9.216;2023-04-15T05:12:12;94416.94;;;4.72;100.00
4590;BME280;2307;48.448;9.216;2023-04-15T05:14:39;94416.84;;;4.79;100.00
4590;BME280;2307;48.448;9.216;2023-04-15T05:17:05;94418.78;;;4.83;100.00
4590;BME280;2307;48.448;9.216;2023-04-15T05:19:32;94422.56;;;4.88;100.00
4590;BME280;2307;48.448;9.216;2023-04-15T05:21:58;94415.44;;;4.95;100.00
4590;BME280;2307;48.448;9.216;2023-04-15T05:24:25;94421.78;;;4.99;100.00
4590;BME280;2307;48.448;9.216;2023-04-15T05:26:53;94416.66;;;4.92;100.00
4590;BME280;2307;48.448;9.216;2023-04-15T05:29:20;94419.41;;;4.97;100.00
4590;BME280;2307;48.448;9.216;2023-04-15T05:31:46;94420.53;;;5.01;100.00
4590;BME280;2307;48.448;9.216;2023-04-15T05:34:13;94427.72;;;5.06;100.00
4590;BME280;2307;48.448;9.216;2023-04-15T05:36:40;94424.91;;;5.07;100.00
4590;BME280;2307;48.448;9.216;2023-04-15T05:39:06;94426.94;;;5.05;100.00
4590;BME280;2307;48.448;9.216;2023-04-15T05:41:33;94423.66;;;5.10;100.00
4590;BME280;2307;48.448;9.216;2023-04-15T05:44:01;94418.19;;;5.11;100.00
4590;BME280;2307;48.448;9.216;2023-04-15T05:46:27;94419.75;;;5.01;100.00
4590;BME280;2307;48.448;9.216;2023-04-15T05:48:54;94418.16;;;5.00;100.00
4590;BME280;2307;48.448;9.216;2023-04-15T05:51:20;94417.47;;;5.04;100.00
4590;BME280;2307;48.448;9.216;2023-04-15T05:53:47;94422.69;;;5.04;100.00
4590;BME280;2307;48.448;9.216;2023-04-15T05:56:13;94424.44;;;5.10;100.00
4590;BME280;2307;48.448;9.216;2023-04-15T05:58:39;94415.00;;;5.21;100.00
4590;BME280;2307;48.448;9.216;2023-04-15T06:01:07;94415.72;;;5.28;100.00
4590;BME280;2307;48.448;9.216;2023-04-15T06:03:34;94416.50;;;5.28;100.00
4590;BME280;2307;48.448;9.216;2023-04-15T06:06:01;94422.00;;;5.39;100.00
4590;BME280;2307;48.448;9.216;2023-04-15T06:08:27;94422.44;;;5.35;100.00
4590;BME280;2307;48.448;9.216;2023-04-15T06:10:54;94418.69;;;5.43;100.00
4590;BME280;2307;48.448;9.216;2023-04-15T06:13:20;94412.53;;;5.49;100.00
4590;BME280;2307;48.448;9.216;2023-04-15T06:15:47;94414.25;;;5.44;100.00
4590;BME280;2307;48.448;9.216;2023-04-15T06:18:14;94414.69;;;5.52;100.00
4590;BME280;2307;48.448;9.216;2023-04-15T06:20:41;94413.22;;;5.68;100.00
4590;BME280;2307;48.448;9.216;2023-04-15T06:23:07;94421.75;;;5.75;100.00
4590;BME280;2307;48.448;9.216;2023-04-15T06:25:34;94422.81;;;5.85;100.00
4590;BME280;2307;48.448;9.216;2023-04-15T06:28:00;94420.75;;;5.87;100.00
4590;BME280;2307;48.448;9.216;2023-04-15T06:30:26;94424.72;;;5.90;100.00
4590;BME280;2307;48.448;9.216;2023-04-15T06:32:54;94425.31;;;5.92;100.00
4590;BME280;2307;48.448;9.216;2023-04-15T06:35:21;94429.84;;;5.97;100.00
4590;BME280;2307;48.448;9.216;2023-04-15T06:37:48;94428.63;;;5.99;100.00
4590;BME280;2307;48.448;9.216;2023-04-15T06:40:15;94430.88;;;6.07;100.00
4590;BME280;2307;48.448;9.216;2023-04-15T06:42:42;94431.53;;;6.26;100.00
4590;BME280;2307;48.448;9.216;2023-04-15T06:45:08;94442.44;;;6.46;100.00
4590;BME280;2307;48.448;9.216;2023-04-15T06:47:35;94441.72;;;6.51;100.00
4590;BME280;2307;48.448;9.216;2023-04-15T06:50:01;94447.31;;;6.54;100.00
4590;BME280;2307;48.448;9.216;2023-04-15T06:52:29;94445.94;;;6.52;100.00
4590;BME280;2307;48.448;9.216;2023-04-15T06:54:56;94449.25;;;6.59;100.00
4590;BME280;2307;48.448;9.216;2023-04-15T06:57:23;94452.34;;;6.56;100.00
4590;BME280;2307;48.448;9.216;2023-04-15T06:59:49;94455.75;;;6.56;100.00
4590;BME280;2307;48.448;9.216;2023-04-15T07:02:18;94454.03;;;6.50;100.00
4590;BME280;2307;48.448;9.216;2023-04-15T07:04:45;94459.19;;;6.45;100.00
4590;BME280;2307;48.448;9.216;2023-04-15T07:07:11;94452.09;;;6.57;100.00
4590;BME280;2307;48.448;9.216;2023-04-15T07:09:40;94454.50;;;6.59;100.00
4590;BME280;2307;48.448;9.216;2023-04-15T07:12:07;94459.25;;;6.62;100.00
4590;BME280;2307;48.448;9.216;2023-04-15T07:14:33;94448.66;;;6.85;100.00
4590;BME280;2307;48.448;9.216;2023-04-15T07:17:00;94447.28;;;6.94;100.00
4590;BME280;2307;48.448;9.216;2023-04-15T07:19:27;94446.56;;;6.99;100.00
4590;BME280;2307;48.448;9.216;2023-04-15T07:21:53;94442.66;;;7.01;100.00
4590;BME280;2307;48.448;9.216;2023-04-15T07:24:20;94445.16;;;7.08;100.00
4590;BME280;2307;48.448;9.216;2023-04-15T07:26:48;94443.03;;;7.21;100.00
4590;BME280;2307;48.448;9.216;2023-04-15T07:29:15;94447.66;;;7.31;100.00
4590;BME280;2307;48.448;9.216;2023-04-15T07:31:41;94447.03;;;7.40;100.00
4590;BME280;2307;48.448;9.216;2023-04-15T07:34:08;94445.59;;;7.49;100.00
4590;BME280;2307;48.448;9.216;2023-04-15T07:36:34;94440.34;;;7.66;100.00
4590;BME280;2307;48.448;9.216;2023-04-15T07:39:01;94436.69;;;7.67;100.00
4590;BME280;2307;48.448;9.216;2023-04-15T07:41:28;94439.72;;;7.76;100.00
4590;BME280;2307;48.448;9.216;2023-04-15T07:43:56;94432.69;;;7.81;100.00
4590;BME280;2307;48.448;9.216;2023-04-15T07:46:22;94433.50;;;7.82;100.00
4590;BME280;2307;48.448;9.216;2023-04-15T07:48:51;94438.09;;;7.75;100.00
4590;BME280;2307;48.448;9.216;2023-04-15T07:51:17;94433.88;;;7.74;100.00
4590;BME280;2307;48.448;9.216;2023-04-15T07:53:45;94437.47;;;7.84;100.00
4590;BME280;2307;48.448;9.216;2023-04-15T07:56:11;94434.28;;;7.99;100.00
4590;BME280;2307;48.448;9.216;2023-04-15T07:58:37;94434.53;;;8.19;100.00
4590;BME280;2307;48.448;9.216;2023-04-15T08:01:05;94433.66;;;8.30;100.00
4590;BME280;2307;48.448;9.216;2023-04-15T08:03:32;94433.31;;;8.05;100.00
4590;BME280;2307;48.448;9.216;2023-04-15T08:05:58;94426.13;;;8.00;100.00
4590;BME280;2307;48.448;9.216;2023-04-15T08:08:24;94430.69;;;8.27;100.00
4590;BME280;2307;48.448;9.216;2023-04-15T08:10:51;94429.06;;;8.42;100.00
4590;BME280;2307;48.448;9.216;2023-04-15T08:13:17;94433.59;;;8.69;90.24
4590;BME280;2307;48.448;9.216;2023-04-15T08:15:44;94426.47;;;8.91;87.79
4590;BME280;2307;48.448;9.216;2023-04-15T08:18:12;94440.78;;;9.00;90.37
4590;BME280;2307;48.448;9.216;2023-04-15T08:20:38;94428.56;;;9.16;93.24
4590;BME280;2307;48.448;9.216;2023-04-15T08:23:05;94433.38;;;9.24;89.11
4590;BME280;2307;48.448;9.216;2023-04-15T08:25:32;94436.09;;;9.34;92.42
4590;BME280;2307;48.448;9.216;2023-04-15T08:28:02;94430.72;;;9.50;85.37
4590;BME280;2307;48.448;9.216;2023-04-15T08:30:29;94437.13;;;9.65;87.48
4590;BME280;2307;48.448;9.216;2023-04-15T08:32:55;94441.06;;;9.62;89.74
4590;BME280;2307;48.448;9.216;2023-04-15T08:35:23;94438.75;;;9.66;90.30
4590;BME280;2307;48.448;9.216;2023-04-15T08:37:50;94444.19;;;9.86;81.56
4590;BME280;2307;48.448;9.216;2023-04-15T08:40:16;94441.06;;;9.99;75.06
4590;BME280;2307;48.448;9.216;2023-04-15T08:42:43;94445.38;;;10.10;70.69
4590;BME280;2307;48.448;9.216;2023-04-15T08:45:10;94449.66;;;10.16;79.31
4590;BME280;2307;48.448;9.216;2023-04-15T08:47:37;94442.22;;;10.08;80.32
4590;BME280;2307;48.448;9.216;2023-04-15T08:50:04;94451.69;;;10.04;78.61
4590;BME280;2307;48.448;9.216;2023-04-15T08:52:35;94454.34;;;10.09;82.26
4590;BME280;2307;48.448;9.216;2023-04-15T08:55:02;94446.94;;;10.06;85.39
4590;BME280;2307;48.448;9.216;2023-04-15T08:57:28;94451.34;;;10.27;84.29
4590;BME280;2307;48.448;9.216;2023-04-15T08:59:55;94443.47;;;10.42;85.55
4590;BME280;2307;48.448;9.216;2023-04-15T09:02:22;94446.66;;;10.44;85.52
4590;BME280;2307;48.448;9.216;2023-04-15T09:04:48;94452.16;;;10.38;85.20
4590;BME280;2307;48.448;9.216;2023-04-15T09:07:15;94454.56;;;10.39;84.65
4590;BME280;2307;48.448;9.216;2023-04-15T09:09:42;94452.69;;;10.35;83.99
4590;BME280;2307;48.448;9.216;2023-04-15T09:12:10;94455.75;;;10.17;87.40
4590;BME280;2307;48.448;9.216;2023-04-15T09:14:36;94457.66;;;10.31;89.14
4590;BME280;2307;48.448;9.216;2023-04-15T09:17:04;94464.16;;;10.60;86.14
4590;BME280;2307;48.448;9.216;2023-04-15T09:19:31;94466.13;;;10.90;82.33
4590;BME280;2307;48.448;9.216;2023-04-15T09:21:58;94465.66;;;11.08;78.61
4590;BME280;2307;48.448;9.216;2023-04-15T09:24:27;94470.69;;;11.20;85.39
4590;BME280;2307;48.448;9.216;2023-04-15T09:27:00;94465.66;;;11.13;73.13
4590;BME280;2307;48.448;9.216;2023-04-15T09:29:26;94472.06;;;11.38;78.62
4590;BME280;2307;48.448;9.216;2023-04-15T09:31:53;94477.91;;;11.50;70.34
4590;BME280;2307;48.448;9.216;2023-04-15T09:34:19;94484.84;;;11.71;63.38
4590;BME280;2307;48.448;9.216;2023-04-15T09:36:53;94483.47;;;11.68;58.80
4590;BME280;2307;48.448;9.216;2023-04-15T09:39:20;94478.22;;;11.79;55.58
4590;BME280;2307;48.448;9.216;2023-04-15T09:41:46;94485.31;;;11.53;58.23
4590;BME280;2307;48.448;9.216;2023-04-15T09:44:23;94479.78;;;11.69;56.76
4590;BME280;2307;48.448;9.216;2023-04-15T09:46:49;94488.81;;;11.89;56.59
4590;BME280;2307;48.448;9.216;2023-04-15T09:49:16;94485.09;;;11.80;58.34
4590;BME280;2307;48.448;9.216;2023-04-15T09:51:43;94491.44;;;11.84;55.64
4590;BME280;2307;48.448;9.216;2023-04-15T09:54:09;94492.00;;;11.76;59.01
4590;BME280;2307;48.448;9.216;2023-04-15T09:56:36;94488.28;;;11.92;57.34
4590;BME280;2307;48.448;9.216;2023-04-15T09:59:05;94486.94;;;12.19;51.80
4590;BME280;2307;48.448;9.216;2023-04-15T10:01:33;94486.41;;;12.27;49.88
4590;BME280;2307;48.448;9.216;2023-04-15T10:04:01;94491.97;;;12.21;52.46
4590;BME280;2307;48.448;9.216;2023-04-15T10:06:28;94494.56;;;12.46;49.15
4590;BME280;2307;48.448;9.216;2023-04-15T10:08:55;94488.75;;;12.49;51.35
4590;BME280;2307;48.448;9.216;2023-04-15T10:11:22;94485.59;;;12.52;49.90
4590;BME280;2307;48.448;9.216;2023-04-15T10:13:49;94484.97;;;12.75;51.16
4590;BME280;2307;48.448;9.216;2023-04-15T10:16:18;94485.00;;;12.70;50.23
4590;BME280;2307;48.448;9.216;2023-04-15T10:18:47;94492.41;;;12.68;47.95
4590;BME280;2307;48.448;9.216;2023-04-15T10:21:16;94489.25;;;12.61;47.40
4590;BME280;2307;48.448;9.216;2023-04-15T10:23:43;94490.84;;;12.57;47.07
4590;BME280;2307;48.448;9.216;2023-04-15T10:26:11;94493.53;;;12.52;47.62
4590;BME280;2307;48.448;9.216;2023-04-15T10:28:38;94492.16;;;12.65;45.73
4590;BME280;2307;48.448;9.216;2023-04-15T10:31:05;94493.00;;;12.45;48.06
4590;BME280;2307;48.448;9.216;2023-04-15T10:33:32;94480.78;;;12.64;47.18
4590;BME280;2307;48.448;9.216;2023-04-15T10:36:00;94491.34;;;12.74;46.54
4590;BME280;2307;48.448;9.216;2023-04-15T10:38:30;94491.56;;;12.78;47.70
4590;BME280;2307;48.448;9.216;2023-04-15T10:41:01;94490.19;;;12.96;47.61
4590;BME280;2307;48.448;9.216;2023-04-15T10:43:36;94494.91;;;13.14;49.35
4590;BME280;2307;48.448;9.216;2023-04-15T10:46:04;94490.72;;;12.98;45.94
4590;BME280;2307;48.448;9.216;2023-04-15T10:48:30;94502.03;;;13.23;46.95
4590;BME280;2307;48.448;9.216;2023-04-15T10:50:57;94503.28;;;13.36;47.08
4590;BME280;2307;48.448;9.216;2023-04-15T10:53:28;94495.19;;;13.61;48.18
4590;BME280;2307;48.448;9.216;2023-04-15T10:55:56;94502.91;;;12.99;49.06
4590;BME280;2307;48.448;9.216;2023-04-15T10:58:22;94513.06;;;12.76;51.71
4590;BME280;2307;48.448;9.216;2023-04-15T11:00:49;94506.19;;;12.65;51.60
4590;BME280;2307;48.448;9.216;2023-04-15T11:03:20;94505.09;;;12.87;49.98
4590;BME280;2307;48.448;9.216;2023-04-15T11:05:59;94507.09;;;13.25;47.13
4590;BME280;2307;48.448;9.216;2023-04-15T11:11:08;94509.66;;;13.40;46.39
4590;BME280;2307;48.448;9.216;2023-04-15T11:13:34;94517.78;;;12.85;50.41
4590;BME280;2307;48.448;9.216;2023-04-15T11:16:01;94511.38;;;13.01;49.40
4590;BME280;2307;48.448;9.216;2023-04-15T11:18:31;94519.84;;;13.08;49.30
4590;BME280;2307;48.448;9.216;2023-04-15T11:20:58;94511.53;;;13.29;46.43
4590;BME280;2307;48.448;9.216;2023-04-15T11:23:30;94515.50;;;13.37;45.76
4590;BME280;2307;48.448;9.216;2023-04-15T11:25:57;94511.84;;;13.23;47.13
4590;BME280;2307;48.448;9.216;2023-04-15T11:28:25;94511.78;;;13.33;47.48
4590;BME280;2307;48.448;9.216;2023-04-15T11:30:53;94518.75;;;13.24;46.66
4590;BME280;2307;48.448;9.216;2023-04-15T11:33:20;94520.25;;;13.40;46.39
4590;BME280;2307;48.448;9.216;2023-04-15T11:35:49;94517.03;;;13.48;44.59
4590;BME280;2307;48.448;9.216;2023-04-15T11:38:17;94518.63;;;13.49;48.70
4590;BME280;2307;48.448;9.216;2023-04-15T11:40:44;94520.69;;;13.57;47.86
4590;BME280;2307;48.448;9.216;2023-04-15T11:43:11;94521.41;;;13.24;49.99
4590;BME280;2307;48.448;9.216;2023-04-15T11:45:47;94523.38;;;13.52;50.62
4590;BME280;2307;48.448;9.216;2023-04-15T11:48:15;94523.97;;;13.44;48.63
4590;BME280;2307;48.448;9.216;2023-04-15T11:50:42;94528.47;;;13.39;47.84
4590;BME280;2307;48.448;9.216;2023-04-15T11:53:09;94533.84;;;13.77;49.92
4590;BME280;2307;48.448;9.216;2023-04-15T11:55:40;94525.25;;;13.91;45.32
4590;BME280;2307;48.448;9.216;2023-04-15T11:58:07;94530.09;;;13.29;47.15
4590;BME280;2307;48.448;9.216;2023-04-15T12:00:34;94531.13;;;13.39;48.69
4590;BME280;2307;48.448;9.216;2023-04-15T12:03:17;94544.63;;;13.42;48.86
4590;BME280;2307;48.448;9.216;2023-04-15T12:09:00;94545.50;;;13.22;48.21
4590;BME280;2307;48.448;9.216;2023-04-15T12:11:28;94542.84;;;13.27;48.37
4590;BME280;2307;48.448;9.216;2023-04-15T12:13:55;94554.84;;;13.15;47.94
4590;BME280;2307;48.448;9.216;2023-04-15T12:16:21;94567.09;;;12.86;47.27
4590;BME280;2307;48.448;9.216;2023-04-15T12:18:50;94566.34;;;12.50;49.92
4590;BME280;2307;48.448;9.216;2023-04-15T12:21:20;94570.28;;;12.77;47.43
4590;BME280;2307;48.448;9.216;2023-04-15T12:23:47;94572.34;;;13.01;45.08
4590;BME280;2307;48.448;9.216;2023-04-15T12:26:13;94569.69;;;13.16;45.50
4590;BME280;2307;48.448;9.216;2023-04-15T12:28:40;94569.88;;;13.29;44.09
4590;BME280;2307;48.448;9.216;2023-04-15T12:31:10;94578.69;;;13.20;45.37
4590;BME280;2307;48.448;9.216;2023-04-15T12:33:37;94577.06;;;13.24;43.87
4590;BME280;2307;48.448;9.216;2023-04-15T12:36:05;94573.91;;;13.17;42.55
4590;BME280;2307;48.448;9.216;2023-04-15T12:38:32;94590.09;;;13.15;44.76
4590;BME280;2307;48.448;9.216;2023-04-15T12:40:58;94587.19;;;13.02;45.41
4590;BME280;2307;48.448;9.216;2023-04-15T12:43:25;94587.13;;;13.27;44.67
4590;BME280;2307;48.448;9.216;2023-04-15T12:45:51;94583.06;;;13.50;44.66
4590;BME280;2307;48.448;9.216;2023-04-15T12:48:18;94583.31;;;13.53;45.30
4590;BME280;2307;48.448;9.216;2023-04-15T12:50:44;94581.69;;;13.57;47.16
4590;BME280;2307;48.448;9.216;2023-04-15T12:53:12;94589.94;;;14.05;44.34
4590;BME280;2307;48.448;9.216;2023-04-15T12:55:38;94598.56;;;14.59;42.08
4590;BME280;2307;48.448;9.216;2023-04-15T12:58:05;94590.75;;;14.73;40.90
4590;BME280;2307;48.448;9.216;2023-04-15T13:00:35;94590.03;;;14.96;42.73
4590;BME280;2307;48.448;9.216;2023-04-15T13:03:01;94587.16;;;14.87;45.30
4590;BME280;2307;48.448;9.216;2023-04-15T13:05:28;94593.88;;;15.09;43.10
4590;BME280;2307;48.448;9.216;2023-04-15T13:07:55;94594.94;;;15.08;41.87
4590;BME280;2307;48.448;9.216;2023-04-15T13:10:22;94583.06;;;15.24;41.22
4590;BME280;2307;48.448;9.216;2023-04-15T13:12:49;94592.03;;;14.80;41.42
4590;BME280;2307;48.448;9.216;2023-04-15T13:15:17;94592.50;;;14.20;44.06
4590;BME280;2307;48.448;9.216;2023-04-15T13:17:45;94593.97;;;14.41;42.65
4590;BME280;2307;48.448;9.216;2023-04-15T13:20:11;94615.31;;;14.21;41.49
4590;BME280;2307;48.448;9.216;2023-04-15T13:22:38;94601.88;;;14.02;39.88
4590;BME280;2307;48.448;9.216;2023-04-15T13:25:05;94607.38;;;14.16;40.37
4590;BME280;2307;48.448;9.216;2023-04-15T13:27:33;94611.63;;;14.17;40.57